Showtime — VHN9398 — position and weather

sailwx.info

Track history (hours):
 
Tides and Currents Weather Stations Pressure Air Temp Water Temp Dewpoint Dewpoint Depression Visibility Wind Speed Wind Dir Waves Ship Positions

Showtime

Last reported at 2018-May-12 03:57 UTC. Time now 2018-Jun-23 19:42 UTC.
Position S 33°39' E 151°18'.
Warning: this ship's position is 42 days out of date.

Length 17 m.

Type: Sailing vessel. MMSI: 503674900.

Date/timePositionNaut miles runAvg speedWind from/ knotsBaromVisibWave heightAir tempDewpointWater temp
2018-May-12 03:57S 33°39' E 151°18'1 2.5
2018-May-12 03:30S 33°38' E 151°18'5 6.3
2018-May-12 02:43S 33°33' E 151°19'4 6.5
2018-May-12 02:05S 33°38' E 151°18'1 9.8
2018-May-12 02:00S 33°38' E 151°18'1 1.9
2018-May-12 01:30S 33°39' E 151°18'  
2018-May-09 06:20S 33°39' E 151°18'0 0.7
2018-May-09 06:01S 33°39' E 151°18'2 3.8
2018-May-09 05:30S 33°37' E 151°19'1 1.7
2018-May-09 05:01S 33°38' E 151°18'1 1.6
2018-May-09 04:21S 33°37' E 151°19'1 3.7
2018-May-09 04:00S 33°38' E 151°18'2 2.9
2018-May-09 03:28S 33°39' E 151°18'  
2018-May-05 05:07S 33°39' E 151°18'0 0.0
2018-May-05 04:46S 33°39' E 151°18'0 0.0
2018-May-05 04:28S 33°39' E 151°18'1 2.4
2018-May-05 04:00S 33°38' E 151°18'2 1.0
2018-May-05 02:23S 33°37' E 151°19'1 2.6
2018-May-05 02:00S 33°38' E 151°18'2 2.9
2018-May-05 01:28S 33°39' E 151°18'0 0.0
2018-May-05 00:58S 33°39' E 151°18'  
2018-May-02 06:22S 33°39' E 151°18'2 4.3
2018-May-02 06:00S 33°38' E 151°18'2 2.0
2018-May-02 05:14S 33°37' E 151°19'0 1.9
2018-May-02 05:00S 33°37' E 151°19'1 1.8
2018-May-02 04:30S 33°38' E 151°18'0 0.4
2018-May-02 04:00S 33°38' E 151°18'  
Track history (hours):
 
Tides and Currents Weather Stations Pressure Air Temp Water Temp Dewpoint Dewpoint Depression Visibility Wind Speed Wind Dir Waves Ship Positions

Showtime

Last reported at 2018-May-12 03:57 UTC. Time now 2018-Jun-23 19:42 UTC.
Position S 33°39' E 151°18'.
Warning: this ship's position is 42 days out of date.

Length 17 m.

Type: Sailing vessel. MMSI: 503674900.

Date/timePositionNaut miles runAvg speedWind from/ knotsBaromVisibWave heightAir tempDewpointWater temp
2018-May-12 03:57S 33°39' E 151°18'1 2.5
2018-May-12 03:30S 33°38' E 151°18'5 6.3
2018-May-12 02:43S 33°33' E 151°19'4 6.5
2018-May-12 02:05S 33°38' E 151°18'1 9.8
2018-May-12 02:00S 33°38' E 151°18'1 1.9
2018-May-12 01:30S 33°39' E 151°18'  
2018-May-09 06:20S 33°39' E 151°18'0 0.7
2018-May-09 06:01S 33°39' E 151°18'2 3.8
2018-May-09 05:30S 33°37' E 151°19'1 1.7
2018-May-09 05:01S 33°38' E 151°18'1 1.6
2018-May-09 04:21S 33°37' E 151°19'1 3.7
2018-May-09 04:00S 33°38' E 151°18'2 2.9
2018-May-09 03:28S 33°39' E 151°18'  
2018-May-05 05:07S 33°39' E 151°18'0 0.0
2018-May-05 04:46S 33°39' E 151°18'0 0.0
2018-May-05 04:28S 33°39' E 151°18'1 2.4
2018-May-05 04:00S 33°38' E 151°18'2 1.0
2018-May-05 02:23S 33°37' E 151°19'1 2.6
2018-May-05 02:00S 33°38' E 151°18'2 2.9
2018-May-05 01:28S 33°39' E 151°18'0 0.0
2018-May-05 00:58S 33°39' E 151°18'  
2018-May-02 06:22S 33°39' E 151°18'2 4.3
2018-May-02 06:00S 33°38' E 151°18'2 2.0
2018-May-02 05:14S 33°37' E 151°19'0 1.9
2018-May-02 05:00S 33°37' E 151°19'1 1.8
2018-May-02 04:30S 33°38' E 151°18'0 0.4
2018-May-02 04:00S 33°38' E 151°18'  

Dump ship's entire track history